sensor_id;sensor_type;location;lat;lon;timestamp;P1;durP1;ratioP1;P2;durP2;ratioP2
417;SDS011;49;48.530;9.200;2022-12-29T00:00:44;13.10;;;7.10;;
417;SDS011;49;48.530;9.200;2022-12-29T00:03:22;12.40;;;7.47;;
417;SDS011;49;48.530;9.200;2022-12-29T00:05:55;10.03;;;6.47;;
417;SDS011;49;48.530;9.200;2022-12-29T00:08:23;11.33;;;6.53;;
417;SDS011;49;48.530;9.200;2022-12-29T00:11:04;9.77;;;5.93;;
417;SDS011;49;48.530;9.200;2022-12-29T00:13:48;10.27;;;6.47;;
417;SDS011;49;48.530;9.200;2022-12-29T00:16:48;12.20;;;5.60;;
417;SDS011;49;48.530;9.200;2022-12-29T00:19:35;10.83;;;5.03;;
417;SDS011;49;48.530;9.200;2022-12-29T00:22:37;9.77;;;4.50;;
417;SDS011;49;48.530;9.200;2022-12-29T00:25:22;5.20;;;3.80;;
417;SDS011;49;48.530;9.200;2022-12-29T00:28:41;6.63;;;3.40;;
417;SDS011;49;48.530;9.200;2022-12-29T00:31:50;5.67;;;3.80;;
417;SDS011;49;48.530;9.200;2022-12-29T00:34:55;6.20;;;3.80;;
417;SDS011;49;48.530;9.200;2022-12-29T00:37:52;4.63;;;3.17;;
417;SDS011;49;48.530;9.200;2022-12-29T00:40:45;5.77;;;3.03;;
417;SDS011;49;48.530;9.200;2022-12-29T00:43:56;4.53;;;3.00;;
417;SDS011;49;48.530;9.200;2022-12-29T00:46:34;6.30;;;3.20;;
417;SDS011;49;48.530;9.200;2022-12-29T00:49:18;6.70;;;4.10;;
417;SDS011;49;48.530;9.200;2022-12-29T00:52:05;5.93;;;3.87;;
417;SDS011;49;48.530;9.200;2022-12-29T00:54:42;7.53;;;3.27;;
417;SDS011;49;48.530;9.200;2022-12-29T00:57:15;6.40;;;3.03;;
417;SDS011;49;48.530;9.200;2022-12-29T00:59:52;7.00;;;3.73;;
417;SDS011;49;48.530;9.200;2022-12-29T01:02:28;6.67;;;3.70;;
417;SDS011;49;48.530;9.200;2022-12-29T01:05:00;4.17;;;3.10;;
417;SDS011;49;48.530;9.200;2022-12-29T01:07:30;4.80;;;3.43;;
417;SDS011;49;48.530;9.200;2022-12-29T01:09:59;4.93;;;3.47;;
417;SDS011;49;48.530;9.200;2022-12-29T01:12:39;15.50;;;4.50;;
417;SDS011;49;48.530;9.200;2022-12-29T01:15:11;4.90;;;3.17;;
417;SDS011;49;48.530;9.200;2022-12-29T01:17:41;8.60;;;3.93;;
417;SDS011;49;48.530;9.200;2022-12-29T01:20:09;6.00;;;3.80;;
417;SDS011;49;48.530;9.200;2022-12-29T01:22:42;9.20;;;3.70;;
417;SDS011;49;48.530;9.200;2022-12-29T01:25:14;5.47;;;3.67;;
417;SDS011;49;48.530;9.200;2022-12-29T01:27:45;6.93;;;4.33;;
417;SDS011;49;48.530;9.200;2022-12-29T01:30:13;11.50;;;4.87;;
417;SDS011;49;48.530;9.200;2022-12-29T01:32:43;9.27;;;4.53;;
417;SDS011;49;48.530;9.200;2022-12-29T01:35:27;10.87;;;5.33;;
417;SDS011;49;48.530;9.200;2022-12-29T01:37:57;6.13;;;4.00;;
417;SDS011;49;48.530;9.200;2022-12-29T01:40:36;8.50;;;5.40;;
417;SDS011;49;48.530;9.200;2022-12-29T01:43:14;10.80;;;5.00;;
417;SDS011;49;48.530;9.200;2022-12-29T01:45:47;6.80;;;4.20;;
417;SDS011;49;48.530;9.200;2022-12-29T01:48:24;6.50;;;4.20;;
417;SDS011;49;48.530;9.200;2022-12-29T01:50:58;5.43;;;3.77;;
417;SDS011;49;48.530;9.200;2022-12-29T01:53:31;7.07;;;3.97;;
417;SDS011;49;48.530;9.200;2022-12-29T01:56:08;8.17;;;4.17;;
417;SDS011;49;48.530;9.200;2022-12-29T01:58:41;6.30;;;3.80;;
417;SDS011;49;48.530;9.200;2022-12-29T02:01:24;6.90;;;4.50;;
417;SDS011;49;48.530;9.200;2022-12-29T02:03:56;11.17;;;4.50;;
417;SDS011;49;48.530;9.200;2022-12-29T02:06:36;7.40;;;4.10;;
417;SDS011;49;48.530;9.200;2022-12-29T02:09:14;8.20;;;4.27;;
417;SDS011;49;48.530;9.200;2022-12-29T02:11:50;6.87;;;5.53;;
417;SDS011;49;48.530;9.200;2022-12-29T02:14:40;6.23;;;3.90;;
417;SDS011;49;48.530;9.200;2022-12-29T02:17:29;6.27;;;3.73;;
417;SDS011;49;48.530;9.200;2022-12-29T02:23:53;8.47;;;4.30;;
417;SDS011;49;48.530;9.200;2022-12-29T02:30:10;8.03;;;4.07;;
417;SDS011;49;48.530;9.200;2022-12-29T02:32:59;15.93;;;4.00;;
417;SDS011;49;48.530;9.200;2022-12-29T02:36:05;5.97;;;2.73;;
417;SDS011;49;48.530;9.200;2022-12-29T02:38:51;6.53;;;3.03;;
417;SDS011;49;48.530;9.200;2022-12-29T02:42:02;10.23;;;3.43;;
417;SDS011;49;48.530;9.200;2022-12-29T02:44:49;7.00;;;3.20;;
417;SDS011;49;48.530;9.200;2022-12-29T02:47:26;8.20;;;3.60;;
417;SDS011;49;48.530;9.200;2022-12-29T02:50:11;10.20;;;2.93;;
417;SDS011;49;48.530;9.200;2022-12-29T02:52:54;8.50;;;3.20;;
417;SDS011;49;48.530;9.200;2022-12-29T02:55:32;4.70;;;2.80;;
417;SDS011;49;48.530;9.200;2022-12-29T02:58:17;9.50;;;3.27;;
417;SDS011;49;48.530;9.200;2022-12-29T03:01:40;4.03;;;3.10;;
417;SDS011;49;48.530;9.200;2022-12-29T03:04:36;7.83;;;3.10;;
417;SDS011;49;48.530;9.200;2022-12-29T03:07:23;5.20;;;2.97;;
417;SDS011;49;48.530;9.200;2022-12-29T03:10:12;5.03;;;2.93;;
417;SDS011;49;48.530;9.200;2022-12-29T03:12:53;6.53;;;2.77;;
417;SDS011;49;48.530;9.200;2022-12-29T03:15:49;6.70;;;2.90;;
417;SDS011;49;48.530;9.200;2022-12-29T03:18:45;9.70;;;2.87;;
417;SDS011;49;48.530;9.200;2022-12-29T03:21:31;3.47;;;2.80;;
417;SDS011;49;48.530;9.200;2022-12-29T03:24:27;20.30;;;3.60;;
417;SDS011;49;48.530;9.200;2022-12-29T03:27:10;5.23;;;2.50;;
417;SDS011;49;48.530;9.200;2022-12-29T03:29:44;5.33;;;2.50;;
417;SDS011;49;48.530;9.200;2022-12-29T03:32:28;4.50;;;2.40;;
417;SDS011;49;48.530;9.200;2022-12-29T03:35:11;9.23;;;3.47;;
417;SDS011;49;48.530;9.200;2022-12-29T03:37:44;3.97;;;2.57;;
417;SDS011;49;48.530;9.200;2022-12-29T03:40:33;2.83;;;2.53;;
417;SDS011;49;48.530;9.200;2022-12-29T03:43:01;8.83;;;2.83;;
417;SDS011;49;48.530;9.200;2022-12-29T03:45:35;5.90;;;2.60;;
417;SDS011;49;48.530;9.200;2022-12-29T03:48:11;3.17;;;2.43;;
417;SDS011;49;48.530;9.200;2022-12-29T03:50:40;3.83;;;2.50;;
417;SDS011;49;48.530;9.200;2022-12-29T03:53:13;8.03;;;2.77;;
417;SDS011;49;48.530;9.200;2022-12-29T03:55:42;2.83;;;2.63;;
417;SDS011;49;48.530;9.200;2022-12-29T03:58:09;7.30;;;3.00;;
417;SDS011;49;48.530;9.200;2022-12-29T04:00:38;12.43;;;2.60;;
417;SDS011;49;48.530;9.200;2022-12-29T04:03:12;6.50;;;2.43;;
417;SDS011;49;48.530;9.200;2022-12-29T04:05:56;5.63;;;2.60;;
417;SDS011;49;48.530;9.200;2022-12-29T04:08:27;9.17;;;3.73;;
417;SDS011;49;48.530;9.200;2022-12-29T04:11:00;6.37;;;3.90;;
417;SDS011;49;48.530;9.200;2022-12-29T04:13:32;8.10;;;4.03;;
417;SDS011;49;48.530;9.200;2022-12-29T04:16:06;20.60;;;8.33;;
417;SDS011;49;48.530;9.200;2022-12-29T04:18:36;8.37;;;3.40;;
417;SDS011;49;48.530;9.200;2022-12-29T04:21:06;10.30;;;5.80;;
417;SDS011;49;48.530;9.200;2022-12-29T04:23:40;15.53;;;5.17;;
417;SDS011;49;48.530;9.200;2022-12-29T04:26:16;10.80;;;5.67;;
417;SDS011;49;48.530;9.200;2022-12-29T04:28:53;8.17;;;4.60;;
417;SDS011;49;48.530;9.200;2022-12-29T04:31:23;5.90;;;3.33;;
417;SDS011;49;48.530;9.200;2022-12-29T04:33:54;10.17;;;3.93;;
417;SDS011;49;48.530;9.200;2022-12-29T04:36:27;7.17;;;2.83;;
417;SDS011;49;48.530;9.200;2022-12-29T04:39:02;5.67;;;2.90;;
417;SDS011;49;48.530;9.200;2022-12-29T04:41:38;4.07;;;3.10;;
417;SDS011;49;48.530;9.200;2022-12-29T04:44:10;8.03;;;3.33;;
417;SDS011;49;48.530;9.200;2022-12-29T04:46:40;6.33;;;3.30;;
417;SDS011;49;48.530;9.200;2022-12-29T04:49:23;4.97;;;3.43;;
417;SDS011;49;48.530;9.200;2022-12-29T04:51:51;8.30;;;4.00;;
417;SDS011;49;48.530;9.200;2022-12-29T04:54:22;5.47;;;3.03;;
417;SDS011;49;48.530;9.200;2022-12-29T04:57:02;9.50;;;3.50;;
417;SDS011;49;48.530;9.200;2022-12-29T04:59:33;11.70;;;3.17;;
417;SDS011;49;48.530;9.200;2022-12-29T05:02:06;6.13;;;3.00;;
417;SDS011;49;48.530;9.200;2022-12-29T05:04:41;4.73;;;3.27;;
417;SDS011;49;48.530;9.200;2022-12-29T05:07:24;8.33;;;4.00;;
417;SDS011;49;48.530;9.200;2022-12-29T05:09:51;7.97;;;4.23;;
417;SDS011;49;48.530;9.200;2022-12-29T05:15:24;7.37;;;4.20;;
417;SDS011;49;48.530;9.200;2022-12-29T05:17:51;16.03;;;8.03;;
417;SDS011;49;48.530;9.200;2022-12-29T05:20:20;7.27;;;4.13;;
417;SDS011;49;48.530;9.200;2022-12-29T05:22:55;6.30;;;3.60;;
417;SDS011;49;48.530;9.200;2022-12-29T05:25:24;8.43;;;3.23;;
417;SDS011;49;48.530;9.200;2022-12-29T05:28:09;4.33;;;3.13;;
417;SDS011;49;48.530;9.200;2022-12-29T05:30:38;7.07;;;3.00;;
417;SDS011;49;48.530;9.200;2022-12-29T05:33:10;7.00;;;3.37;;
417;SDS011;49;48.530;9.200;2022-12-29T05:35:42;7.80;;;3.00;;
417;SDS011;49;48.530;9.200;2022-12-29T05:38:17;5.00;;;3.67;;
417;SDS011;49;48.530;9.200;2022-12-29T05:40:52;6.93;;;3.80;;
417;SDS011;49;48.530;9.200;2022-12-29T05:43:20;6.97;;;3.03;;
417;SDS011;49;48.530;9.200;2022-12-29T05:45:53;9.37;;;3.60;;
417;SDS011;49;48.530;9.200;2022-12-29T05:48:25;5.40;;;3.60;;
417;SDS011;49;48.530;9.200;2022-12-29T05:50:55;6.60;;;3.83;;
417;SDS011;49;48.530;9.200;2022-12-29T05:53:26;4.27;;;2.90;;
417;SDS011;49;48.530;9.200;2022-12-29T05:55:53;3.63;;;3.00;;
417;SDS011;49;48.530;9.200;2022-12-29T05:58:25;5.50;;;3.43;;
417;SDS011;49;48.530;9.200;2022-12-29T06:01:03;4.07;;;2.47;;
417;SDS011;49;48.530;9.200;2022-12-29T06:03:41;8.73;;;3.93;;
417;SDS011;49;48.530;9.200;2022-12-29T06:06:13;4.30;;;3.00;;
417;SDS011;49;48.530;9.200;2022-12-29T06:08:41;16.17;;;3.23;;
417;SDS011;49;48.530;9.200;2022-12-29T06:11:08;7.53;;;2.70;;
417;SDS011;49;48.530;9.200;2022-12-29T06:13:37;4.80;;;3.20;;
417;SDS011;49;48.530;9.200;2022-12-29T06:16:07;11.37;;;3.60;;
417;SDS011;49;48.530;9.200;2022-12-29T06:18:37;6.33;;;2.93;;
417;SDS011;49;48.530;9.200;2022-12-29T06:21:10;6.80;;;3.20;;
417;SDS011;49;48.530;9.200;2022-12-29T06:23:37;8.33;;;3.27;;
417;SDS011;49;48.530;9.200;2022-12-29T06:26:13;5.93;;;3.43;;
417;SDS011;49;48.530;9.200;2022-12-29T06:28:45;4.00;;;2.90;;
417;SDS011;49;48.530;9.200;2022-12-29T06:31:15;6.43;;;3.67;;
417;SDS011;49;48.530;9.200;2022-12-29T06:33:47;4.20;;;2.80;;
417;SDS011;49;48.530;9.200;2022-12-29T06:36:23;5.77;;;3.17;;
417;SDS011;49;48.530;9.200;2022-12-29T06:38:56;5.63;;;2.93;;
417;SDS011;49;48.530;9.200;2022-12-29T06:41:30;5.00;;;3.23;;
417;SDS011;49;48.530;9.200;2022-12-29T06:44:13;4.83;;;2.60;;
417;SDS011;49;48.530;9.200;2022-12-29T06:46:42;3.17;;;2.83;;
417;SDS011;49;48.530;9.200;2022-12-29T06:49:30;3.83;;;2.70;;
417;SDS011;49;48.530;9.200;2022-12-29T06:51:59;6.93;;;3.20;;
417;SDS011;49;48.530;9.200;2022-12-29T06:54:36;3.10;;;2.70;;
417;SDS011;49;48.530;9.200;2022-12-29T06:57:10;5.03;;;2.33;;
417;SDS011;49;48.530;9.200;2022-12-29T06:59:57;4.00;;;2.63;;
417;SDS011;49;48.530;9.200;2022-12-29T07:02:35;4.10;;;2.97;;
417;SDS011;49;48.530;9.200;2022-12-29T07:05:09;3.60;;;2.63;;
417;SDS011;49;48.530;9.200;2022-12-29T07:07:38;3.80;;;2.90;;
417;SDS011;49;48.530;9.200;2022-12-29T07:10:08;5.10;;;2.77;;
417;SDS011;49;48.530;9.200;2022-12-29T07:12:40;5.23;;;3.20;;
417;SDS011;49;48.530;9.200;2022-12-29T07:15:13;3.13;;;2.50;;
417;SDS011;49;48.530;9.200;2022-12-29T07:17:45;5.20;;;2.90;;
417;SDS011;49;48.530;9.200;2022-12-29T07:20:18;4.17;;;2.73;;
417;SDS011;49;48.530;9.200;2022-12-29T07:22:50;6.63;;;2.77;;
417;SDS011;49;48.530;9.200;2022-12-29T07:25:31;4.27;;;2.90;;
417;SDS011;49;48.530;9.200;2022-12-29T07:28:00;7.70;;;3.20;;
417;SDS011;49;48.530;9.200;2022-12-29T07:30:31;5.70;;;2.60;;
417;SDS011;49;48.530;9.200;2022-12-29T07:32:58;3.80;;;2.70;;
417;SDS011;49;48.530;9.200;2022-12-29T07:35:36;5.93;;;2.80;;
417;SDS011;49;48.530;9.200;2022-12-29T07:38:14;3.10;;;3.00;;
417;SDS011;49;48.530;9.200;2022-12-29T07:40:56;7.30;;;2.93;;
417;SDS011;49;48.530;9.200;2022-12-29T07:43:33;5.70;;;2.60;;
417;SDS011;49;48.530;9.200;2022-12-29T07:46:05;5.60;;;2.87;;
417;SDS011;49;48.530;9.200;2022-12-29T07:48:34;7.93;;;2.90;;
417;SDS011;49;48.530;9.200;2022-12-29T07:51:03;7.77;;;3.00;;
417;SDS011;49;48.530;9.200;2022-12-29T07:53:30;4.80;;;2.90;;
417;SDS011;49;48.530;9.200;2022-12-29T07:55:59;5.03;;;2.80;;
417;SDS011;49;48.530;9.200;2022-12-29T07:58:32;4.40;;;3.00;;
417;SDS011;49;48.530;9.200;2022-12-29T08:01:05;3.53;;;2.90;;
417;SDS011;49;48.530;9.200;2022-12-29T08:03:38;16.47;;;3.40;;
417;SDS011;49;48.530;9.200;2022-12-29T08:06:10;5.07;;;2.70;;
417;SDS011;49;48.530;9.200;2022-12-29T08:08:43;6.00;;;2.50;;
417;SDS011;49;48.530;9.200;2022-12-29T08:11:29;4.43;;;2.63;;
417;SDS011;49;48.530;9.200;2022-12-29T08:14:02;4.00;;;2.40;;
417;SDS011;49;48.530;9.200;2022-12-29T08:16:41;7.60;;;3.50;;
417;SDS011;49;48.530;9.200;2022-12-29T08:19:13;5.87;;;2.30;;
417;SDS011;49;48.530;9.200;2022-12-29T08:21:43;4.20;;;2.70;;
417;SDS011;49;48.530;9.200;2022-12-29T08:24:10;5.10;;;2.53;;
417;SDS011;49;48.530;9.200;2022-12-29T08:26:37;10.20;;;2.90;;
417;SDS011;49;48.530;9.200;2022-12-29T08:29:06;7.27;;;3.47;;
417;SDS011;49;48.530;9.200;2022-12-29T08:31:35;6.50;;;2.70;;
417;SDS011;49;48.530;9.200;2022-12-29T08:34:05;4.27;;;2.57;;
417;SDS011;49;48.530;9.200;2022-12-29T08:36:37;4.90;;;2.50;;
417;SDS011;49;48.530;9.200;2022-12-29T08:39:08;5.30;;;2.77;;
417;SDS011;49;48.530;9.200;2022-12-29T08:41:36;6.03;;;2.60;;
417;SDS011;49;48.530;9.200;2022-12-29T08:44:12;3.97;;;2.53;;
417;SDS011;49;48.530;9.200;2022-12-29T08:46:39;5.53;;;2.70;;
417;SDS011;49;48.530;9.200;2022-12-29T08:49:08;4.47;;;2.60;;
417;SDS011;49;48.530;9.200;2022-12-29T08:51:44;9.90;;;2.33;;
417;SDS011;49;48.530;9.200;2022-12-29T08:54:12;5.80;;;3.23;;
417;SDS011;49;48.530;9.200;2022-12-29T08:56:39;7.30;;;2.87;;
417;SDS011;49;48.530;9.200;2022-12-29T08:59:09;5.60;;;2.70;;
417;SDS011;49;48.530;9.200;2022-12-29T09:01:37;4.63;;;2.73;;
417;SDS011;49;48.530;9.200;2022-12-29T09:04:05;4.97;;;2.70;;
417;SDS011;49;48.530;9.200;2022-12-29T09:06:34;5.43;;;2.90;;
417;SDS011;49;48.530;9.200;2022-12-29T09:09:02;3.10;;;2.40;;
417;SDS011;49;48.530;9.200;2022-12-29T09:11:30;3.40;;;2.47;;
417;SDS011;49;48.530;9.200;2022-12-29T09:13:57;8.00;;;2.50;;
417;SDS011;49;48.530;9.200;2022-12-29T09:16:24;5.20;;;2.50;;
417;SDS011;49;48.530;9.200;2022-12-29T09:18:52;7.50;;;2.93;;
417;SDS011;49;48.530;9.200;2022-12-29T09:21:21;9.60;;;2.70;;
417;SDS011;49;48.530;9.200;2022-12-29T09:23:48;5.27;;;2.70;;
417;SDS011;49;48.530;9.200;2022-12-29T09:26:15;4.40;;;2.80;;
417;SDS011;49;48.530;9.200;2022-12-29T09:28:42;6.10;;;2.73;;
417;SDS011;49;48.530;9.200;2022-12-29T09:31:11;4.07;;;2.80;;
417;SDS011;49;48.530;9.200;2022-12-29T09:33:38;6.80;;;2.80;;
417;SDS011;49;48.530;9.200;2022-12-29T09:36:09;3.97;;;2.70;;
417;SDS011;49;48.530;9.200;2022-12-29T09:38:44;8.40;;;3.63;;
417;SDS011;49;48.530;9.200;2022-12-29T09:41:13;4.63;;;2.60;;
417;SDS011;49;48.530;9.200;2022-12-29T09:44:13;6.93;;;3.20;;
417;SDS011;49;48.530;9.200;2022-12-29T09:46:46;3.30;;;2.80;;
417;SDS011;49;48.530;9.200;2022-12-29T09:49:23;7.27;;;2.90;;
417;SDS011;49;48.530;9.200;2022-12-29T09:51:56;6.40;;;3.60;;
417;SDS011;49;48.530;9.200;2022-12-29T09:54:33;3.97;;;2.50;;
417;SDS011;49;48.530;9.200;2022-12-29T09:57:13;7.10;;;2.53;;
417;SDS011;49;48.530;9.200;2022-12-29T09:59:44;15.93;;;3.40;;
417;SDS011;49;48.530;9.200;2022-12-29T10:02:23;5.67;;;2.60;;
417;SDS011;49;48.530;9.200;2022-12-29T10:04:57;10.03;;;2.73;;
417;SDS011;49;48.530;9.200;2022-12-29T10:13:21;3.70;;;2.87;;
417;SDS011;49;48.530;9.200;2022-12-29T10:15:59;3.13;;;2.67;;
417;SDS011;49;48.530;9.200;2022-12-29T10:18:41;9.10;;;3.17;;
417;SDS011;49;48.530;9.200;2022-12-29T10:21:32;4.40;;;2.83;;
417;SDS011;49;48.530;9.200;2022-12-29T10:24:10;4.43;;;3.13;;
417;SDS011;49;48.530;9.200;2022-12-29T10:26:54;3.27;;;2.60;;
417;SDS011;49;48.530;9.200;2022-12-29T10:29:32;2.90;;;2.40;;
417;SDS011;49;48.530;9.200;2022-12-29T10:32:10;11.10;;;2.87;;
417;SDS011;49;48.530;9.200;2022-12-29T10:34:55;8.93;;;2.67;;
417;SDS011;49;48.530;9.200;2022-12-29T10:37:32;7.87;;;2.80;;
417;SDS011;49;48.530;9.200;2022-12-29T10:40:14;4.80;;;2.50;;
417;SDS011;49;48.530;9.200;2022-12-29T10:42:49;4.27;;;2.53;;
417;SDS011;49;48.530;9.200;2022-12-29T10:45:23;3.50;;;2.63;;
417;SDS011;49;48.530;9.200;2022-12-29T10:47:56;7.20;;;2.60;;
417;SDS011;49;48.530;9.200;2022-12-29T10:50:28;9.47;;;2.57;;
417;SDS011;49;48.530;9.200;2022-12-29T10:53:04;4.10;;;2.57;;
417;SDS011;49;48.530;9.200;2022-12-29T10:55:55;5.03;;;2.70;;
417;SDS011;49;48.530;9.200;2022-12-29T10:58:27;8.10;;;2.83;;
417;SDS011;49;48.530;9.200;2022-12-29T11:01:10;9.20;;;2.83;;
417;SDS011;49;48.530;9.200;2022-12-29T11:03:51;3.80;;;2.63;;
417;SDS011;49;48.530;9.200;2022-12-29T11:06:34;10.13;;;2.50;;
417;SDS011;49;48.530;9.200;2022-12-29T11:09:10;4.07;;;2.50;;
417;SDS011;49;48.530;9.200;2022-12-29T11:12:24;3.40;;;2.60;;
417;SDS011;49;48.530;9.200;2022-12-29T11:18:21;5.87;;;2.43;;
417;SDS011;49;48.530;9.200;2022-12-29T11:24:33;4.27;;;2.47;;
417;SDS011;49;48.530;9.200;2022-12-29T11:27:54;5.40;;;2.50;;
417;SDS011;49;48.530;9.200;2022-12-29T11:30:56;6.43;;;2.70;;
417;SDS011;49;48.530;9.200;2022-12-29T11:33:35;6.87;;;3.10;;
417;SDS011;49;48.530;9.200;2022-12-29T11:36:07;9.40;;;4.00;;
417;SDS011;49;48.530;9.200;2022-12-29T11:38:46;5.57;;;3.10;;
417;SDS011;49;48.530;9.200;2022-12-29T11:41:32;3.10;;;2.67;;
417;SDS011;49;48.530;9.200;2022-12-29T11:46:53;6.53;;;3.10;;
417;SDS011;49;48.530;9.200;2022-12-29T11:49:26;6.33;;;3.00;;
417;SDS011;49;48.530;9.200;2022-12-29T11:51:53;4.67;;;2.87;;
417;SDS011;49;48.530;9.200;2022-12-29T11:54:22;4.20;;;2.50;;
417;SDS011;49;48.530;9.200;2022-12-29T11:56:58;6.60;;;3.13;;
417;SDS011;49;48.530;9.200;2022-12-29T11:59:37;6.37;;;2.73;;
417;SDS011;49;48.530;9.200;2022-12-29T12:02:40;4.37;;;3.40;;
417;SDS011;49;48.530;9.200;2022-12-29T12:05:18;8.53;;;3.10;;
417;SDS011;49;48.530;9.200;2022-12-29T12:07:54;5.03;;;2.93;;
417;SDS011;49;48.530;9.200;2022-12-29T12:10:36;6.10;;;3.20;;
417;SDS011;49;48.530;9.200;2022-12-29T12:16:12;5.77;;;3.33;;
417;SDS011;49;48.530;9.200;2022-12-29T12:18:47;3.40;;;2.60;;
417;SDS011;49;48.530;9.200;2022-12-29T12:21:23;19.40;;;3.73;;
417;SDS011;49;48.530;9.200;2022-12-29T12:23:59;5.27;;;2.90;;
417;SDS011;49;48.530;9.200;2022-12-29T12:26:39;5.83;;;3.20;;
417;SDS011;49;48.530;9.200;2022-12-29T12:29:19;5.70;;;2.90;;
417;SDS011;49;48.530;9.200;2022-12-29T12:31:54;12.50;;;3.53;;
417;SDS011;49;48.530;9.200;2022-12-29T12:34:29;3.97;;;3.10;;
417;SDS011;49;48.530;9.200;2022-12-29T12:37:13;4.27;;;3.40;;
417;SDS011;49;48.530;9.200;2022-12-29T12:39:59;7.20;;;3.10;;
417;SDS011;49;48.530;9.200;2022-12-29T12:42:45;9.97;;;3.03;;
417;SDS011;49;48.530;9.200;2022-12-29T12:45:38;4.43;;;3.33;;
417;SDS011;49;48.530;9.200;2022-12-29T12:48:32;7.67;;;2.80;;
417;SDS011;49;48.530;9.200;2022-12-29T12:51:24;11.50;;;3.33;;
417;SDS011;49;48.530;9.200;2022-12-29T12:54:03;8.50;;;3.33;;
417;SDS011;49;48.530;9.200;2022-12-29T12:56:47;5.83;;;3.40;;
417;SDS011;49;48.530;9.200;2022-12-29T12:59:30;7.70;;;3.37;;
417;SDS011;49;48.530;9.200;2022-12-29T13:02:11;8.23;;;3.47;;
417;SDS011;49;48.530;9.200;2022-12-29T13:05:04;8.83;;;4.20;;
417;SDS011;49;48.530;9.200;2022-12-29T13:08:07;4.70;;;3.07;;
417;SDS011;49;48.530;9.200;2022-12-29T13:10:59;9.10;;;3.27;;
417;SDS011;49;48.530;9.200;2022-12-29T13:16:41;6.40;;;3.37;;
417;SDS011;49;48.530;9.200;2022-12-29T13:19:16;4.57;;;3.03;;
417;SDS011;49;48.530;9.200;2022-12-29T13:21:56;9.03;;;3.33;;
417;SDS011;49;48.530;9.200;2022-12-29T13:24:42;7.03;;;3.17;;
417;SDS011;49;48.530;9.200;2022-12-29T13:27:26;4.60;;;3.20;;
417;SDS011;49;48.530;9.200;2022-12-29T13:30:18;4.57;;;3.20;;
417;SDS011;49;48.530;9.200;2022-12-29T13:33:10;8.03;;;3.33;;
417;SDS011;49;48.530;9.200;2022-12-29T13:35:56;10.00;;;3.50;;
417;SDS011;49;48.530;9.200;2022-12-29T13:38:33;5.50;;;3.43;;
417;SDS011;49;48.530;9.200;2022-12-29T13:46:46;7.70;;;2.90;;
417;SDS011;49;48.530;9.200;2022-12-29T13:49:17;5.47;;;2.80;;
417;SDS011;49;48.530;9.200;2022-12-29T13:51:47;8.27;;;2.73;;
417;SDS011;49;48.530;9.200;2022-12-29T13:54:30;8.53;;;3.60;;
417;SDS011;49;48.530;9.200;2022-12-29T13:57:08;5.40;;;3.00;;
417;SDS011;49;48.530;9.200;2022-12-29T13:59:44;5.50;;;3.40;;
417;SDS011;49;48.530;9.200;2022-12-29T14:02:26;6.03;;;3.70;;
417;SDS011;49;48.530;9.200;2022-12-29T14:05:02;8.13;;;3.60;;
417;SDS011;49;48.530;9.200;2022-12-29T14:07:35;7.67;;;3.97;;
417;SDS011;49;48.530;9.200;2022-12-29T14:10:04;4.83;;;3.43;;
417;SDS011;49;48.530;9.200;2022-12-29T14:12:35;6.50;;;3.70;;
417;SDS011;49;48.530;9.200;2022-12-29T14:15:22;7.47;;;3.60;;
417;SDS011;49;48.530;9.200;2022-12-29T14:18:03;16.20;;;3.50;;
417;SDS011;49;48.530;9.200;2022-12-29T14:20:39;6.03;;;3.80;;
417;SDS011;49;48.530;9.200;2022-12-29T14:23:27;5.47;;;3.83;;
417;SDS011;49;48.530;9.200;2022-12-29T14:26:11;7.30;;;3.70;;
417;SDS011;49;48.530;9.200;2022-12-29T14:28:42;5.80;;;3.73;;
417;SDS011;49;48.530;9.200;2022-12-29T14:36:58;5.90;;;4.03;;
417;SDS011;49;48.530;9.200;2022-12-29T14:39:35;24.70;;;8.73;;
417;SDS011;49;48.530;9.200;2022-12-29T14:42:05;6.70;;;3.57;;
417;SDS011;49;48.530;9.200;2022-12-29T14:47:25;5.83;;;3.37;;
417;SDS011;49;48.530;9.200;2022-12-29T14:50:04;6.23;;;3.27;;
417;SDS011;49;48.530;9.200;2022-12-29T14:52:41;5.07;;;3.40;;
417;SDS011;49;48.530;9.200;2022-12-29T14:58:06;4.53;;;3.27;;
417;SDS011;49;48.530;9.200;2022-12-29T15:00:42;5.27;;;3.50;;
417;SDS011;49;48.530;9.200;2022-12-29T15:03:13;4.80;;;3.40;;
417;SDS011;49;48.530;9.200;2022-12-29T15:05:44;9.73;;;4.00;;
417;SDS011;49;48.530;9.200;2022-12-29T15:08:16;8.27;;;4.27;;
417;SDS011;49;48.530;9.200;2022-12-29T15:10:47;7.77;;;3.30;;
417;SDS011;49;48.530;9.200;2022-12-29T15:13:22;11.57;;;3.93;;
417;SDS011;49;48.530;9.200;2022-12-29T15:15:53;7.17;;;3.83;;
417;SDS011;49;48.530;9.200;2022-12-29T15:18:25;5.60;;;3.30;;
417;SDS011;49;48.530;9.200;2022-12-29T15:20:53;6.93;;;3.67;;
417;SDS011;49;48.530;9.200;2022-12-29T15:23:23;8.40;;;3.93;;
417;SDS011;49;48.530;9.200;2022-12-29T15:25:54;8.07;;;4.00;;
417;SDS011;49;48.530;9.200;2022-12-29T15:28:37;6.77;;;3.70;;
417;SDS011;49;48.530;9.200;2022-12-29T15:31:10;8.13;;;3.40;;
417;SDS011;49;48.530;9.200;2022-12-29T15:33:46;7.73;;;3.60;;
417;SDS011;49;48.530;9.200;2022-12-29T15:36:18;7.87;;;4.00;;
417;SDS011;49;48.530;9.200;2022-12-29T15:38:54;7.53;;;3.97;;
417;SDS011;49;48.530;9.200;2022-12-29T15:41:25;6.03;;;3.73;;
417;SDS011;49;48.530;9.200;2022-12-29T15:44:28;7.30;;;4.50;;
417;SDS011;49;48.530;9.200;2022-12-29T15:47:20;10.70;;;4.90;;
417;SDS011;49;48.530;9.200;2022-12-29T15:50:08;7.00;;;3.80;;
417;SDS011;49;48.530;9.200;2022-12-29T15:52:43;8.30;;;4.33;;
417;SDS011;49;48.530;9.200;2022-12-29T15:55:18;6.93;;;4.33;;
417;SDS011;49;48.530;9.200;2022-12-29T15:57:49;9.70;;;4.00;;
417;SDS011;49;48.530;9.200;2022-12-29T16:00:23;9.10;;;4.67;;
417;SDS011;49;48.530;9.200;2022-12-29T16:02:57;8.17;;;4.70;;
417;SDS011;49;48.530;9.200;2022-12-29T16:05:32;12.00;;;6.47;;
417;SDS011;49;48.530;9.200;2022-12-29T16:08:03;14.13;;;7.17;;
417;SDS011;49;48.530;9.200;2022-12-29T16:10:47;8.83;;;5.67;;
417;SDS011;49;48.530;9.200;2022-12-29T16:13:16;10.43;;;6.00;;
417;SDS011;49;48.530;9.200;2022-12-29T16:15:49;11.60;;;6.17;;
417;SDS011;49;48.530;9.200;2022-12-29T16:18:21;9.13;;;5.97;;
417;SDS011;49;48.530;9.200;2022-12-29T16:20:52;29.17;;;6.13;;
417;SDS011;49;48.530;9.200;2022-12-29T16:23:21;11.33;;;6.63;;
417;SDS011;49;48.530;9.200;2022-12-29T16:25:51;11.43;;;7.20;;
417;SDS011;49;48.530;9.200;2022-12-29T16:28:20;9.90;;;6.03;;
417;SDS011;49;48.530;9.200;2022-12-29T16:30:59;10.63;;;7.20;;
417;SDS011;49;48.530;9.200;2022-12-29T16:33:45;13.63;;;6.47;;
417;SDS011;49;48.530;9.200;2022-12-29T16:36:51;9.20;;;5.70;;
417;SDS011;49;48.530;9.200;2022-12-29T16:39:52;8.90;;;5.10;;
417;SDS011;49;48.530;9.200;2022-12-29T16:42:35;10.73;;;6.10;;
417;SDS011;49;48.530;9.200;2022-12-29T16:48:10;8.40;;;5.20;;
417;SDS011;49;48.530;9.200;2022-12-29T16:50:54;8.30;;;5.20;;
417;SDS011;49;48.530;9.200;2022-12-29T16:53:35;9.60;;;4.93;;
417;SDS011;49;48.530;9.200;2022-12-29T16:56:13;13.70;;;5.17;;
417;SDS011;49;48.530;9.200;2022-12-29T16:58:59;10.70;;;4.77;;
417;SDS011;49;48.530;9.200;2022-12-29T17:01:34;9.70;;;5.00;;
417;SDS011;49;48.530;9.200;2022-12-29T17:04:25;9.73;;;4.33;;
417;SDS011;49;48.530;9.200;2022-12-29T17:06:57;6.53;;;3.73;;
417;SDS011;49;48.530;9.200;2022-12-29T17:09:38;9.03;;;4.17;;
417;SDS011;49;48.530;9.200;2022-12-29T17:12:07;12.93;;;5.17;;
417;SDS011;49;48.530;9.200;2022-12-29T17:14:40;9.53;;;5.10;;
417;SDS011;49;48.530;9.200;2022-12-29T17:17:17;8.47;;;4.97;;
417;SDS011;49;48.530;9.200;2022-12-29T17:19:47;4.60;;;3.70;;
417;SDS011;49;48.530;9.200;2022-12-29T17:22:18;10.60;;;3.97;;
417;SDS011;49;48.530;9.200;2022-12-29T17:24:49;4.10;;;3.40;;
417;SDS011;49;48.530;9.200;2022-12-29T17:27:20;5.70;;;4.07;;
417;SDS011;49;48.530;9.200;2022-12-29T17:29:50;5.67;;;3.93;;
417;SDS011;49;48.530;9.200;2022-12-29T17:32:19;7.40;;;3.70;;
417;SDS011;49;48.530;9.200;2022-12-29T17:34:48;7.87;;;3.60;;
417;SDS011;49;48.530;9.200;2022-12-29T17:37:22;6.77;;;3.50;;
417;SDS011;49;48.530;9.200;2022-12-29T17:39:57;4.13;;;3.40;;
417;SDS011;49;48.530;9.200;2022-12-29T17:42:27;7.97;;;4.37;;
417;SDS011;49;48.530;9.200;2022-12-29T17:44:57;4.90;;;3.80;;
417;SDS011;49;48.530;9.200;2022-12-29T17:47:39;4.00;;;3.40;;
417;SDS011;49;48.530;9.200;2022-12-29T17:50:11;8.27;;;3.87;;
417;SDS011;49;48.530;9.200;2022-12-29T17:52:51;4.00;;;3.43;;
417;SDS011;49;48.530;9.200;2022-12-29T17:55:23;7.23;;;3.97;;